HIDDEN DAM (HENSLEY) (HID)

Elevation: 561' · FRESNO R basin · Operator: US Army Corps of Engineers

Provisional data, subject to change.
Query executed Saturday at 3:36:12   clock

Select a sensor type for a plot of data.
Note: Reservoir Flows are daily averages.

Earlier

Date RES ELE    STORAGE    RES CHG    TOC STO    ABV TOC    OUTFLOW    INFLOW    PPT INC    TEMP MN    TEMP MX    WINDLEN    EVP PAN   
 FEET   AF   AF   AF   AF   CFS   CFS   INCHES   DEG F   DEG F   MILES   INCHES  
10/02/2014 448.14 5010 -6 67142 -62132 0 -0 0.01 15 34 116 0.25
10/03/2014 448.13 5007 -3 66428 -61421 0 1 0.01 16 35 124 0.26
10/04/2014 448.12 5004 -3 65714 -60710 0 1 0.00 17 35 119 0.26
10/05/2014 448.11 5001 -3 65000 -59999 0 1 0.01 17 36 121 0.26
10/06/2014 448.09 4996 -5 64285 -59289 0 0 0.00 18 36 114 0.25
10/07/2014 448.08 4993 -3 63571 -58578 0 1 0.00 17 35 123 0.26
10/08/2014 448.06 4987 -6 62857 -57870 0 -0 0.00 17 35 133 0.26
10/09/2014 448.05 4984 -3 62142 -57158 0 1 0.00 17 33 143 0.26
10/10/2014 448.03 4979 -5 61428 -56449 0 -0 0.00 14 30 117 0.22
10/11/2014 448.02 4976 -3 60714 -55738 0 1 0.00 16 31 104 0.20
10/12/2014 448.02 4976 0 60000 -55024 0 2 0.00 14 31 102 0.20
10/13/2014 448.00 4970 -6 59285 -54315 0 -0 0.00 16 36 119 0.25
10/14/2014 447.99 4968 -2 58571 -53603 0 2 0.00 17 34 144 0.26
10/15/2014 447.98 4965 -3 57857 -57851855 0 0 0.00 16 25 93 0.14
10/16/2014 447.97 4962 -3 57143 -52181 0 -0 0.00 14 26 80 0.13
10/17/2014 447.96 4959 -3 56428 -51469 0 0 0.00 13 26 90 0.14
10/18/2014 447.95 4956 -3 55714 -50758 0 0 0.00 12 27 98 0.16
10/19/2014 447.94 4953 -3 55000 -50047 0 0 0.00 13 29 102 0.18
10/20/2014 447.92 4948 -5 54285 -49337 0 -1 0.00 13 27 129 0.18
10/21/2014 447.91 4945 -3 53571 -48626 0 0 0.00 12 24 130 0.16
10/22/2014 447.89 4939 -6 52857 -47918 0 -1 0.00 10 25 101 0.15
10/23/2014 447.88 4937 -2 52143 -47206 0 1 0.00 11 26 106 0.16
10/24/2014 447.87 4934 -3 51428 -46494 0 1 0.00 12 32 118 0.20
10/25/2014 447.86 4931 -3 50714 -45783 0 0 0.00 12 27 147 0.18
10/26/2014 447.84 4925 -6 50000 -45075 0 -2 0.00 11 21 141 0.14
10/27/2014 447.83 4923 -2 49285 -44362 0 0 0.00 8 23 95 0.13
10/28/2014 447.82 4920 -3 48571 -43651 0 0 0.00 9 24 108 0.14
10/29/2014 447.81 4917 -3 47857 -42940 0 0 0.00 11 27 107 0.16
10/30/2014 447.80 4914 -3 47143 -42229 0 0 0.00 12 30 120 0.18
10/31/2014 447.82 4920 -- 46428 -- 0 5 0.22 12 24 138 0.14
11/01/2014 -- -- -- -- -- -- -- -- -- -- -- --

Later | Latest

Warning! This data is preliminary and subject to revision.

Show HID Map | Plot HID Data | 1 Month HID Data | Real-Time HID Data | HID Info